createdAt,value
2019-04-01T00:02:06.703Z,11.43
2019-04-01T00:04:38.476Z,12.73
2019-04-01T00:07:08.726Z,11.73
2019-04-01T00:09:40.208Z,12.33
2019-04-01T00:12:10.684Z,13.10
2019-04-01T00:14:40.355Z,12.57
2019-04-01T00:17:10.084Z,12.47
2019-04-01T00:19:39.810Z,11.60
2019-04-01T00:22:11.306Z,11.40
2019-04-01T00:24:41.851Z,11.83
2019-04-01T00:27:12.674Z,11.60
2019-04-01T00:29:42.362Z,10.63
2019-04-01T00:32:12.144Z,10.53
2019-04-01T00:34:41.904Z,10.77
2019-04-01T00:37:11.663Z,10.70
2019-04-01T00:39:43.863Z,10.70
2019-04-01T00:42:20.991Z,10.63
2019-04-01T00:44:50.717Z,10.63
2019-04-01T00:47:21.404Z,11.03
2019-04-01T00:49:52.178Z,10.57
2019-04-01T00:52:21.868Z,10.73
2019-04-01T00:54:51.456Z,10.60
2019-04-01T00:57:23.084Z,11.70
2019-04-01T00:59:52.910Z,10.77
2019-04-01T01:02:22.791Z,10.90
2019-04-01T01:04:52.598Z,10.60
2019-04-01T01:07:22.585Z,10.80
2019-04-01T01:09:52.412Z,11.90
2019-04-01T01:12:22.282Z,10.23
2019-04-01T01:14:52.096Z,10.27
2019-04-01T01:17:22.073Z,10.60
2019-04-01T01:19:51.764Z,10.87
2019-04-01T01:22:21.634Z,11.40
2019-04-01T01:24:51.368Z,11.50
2019-04-01T01:27:21.994Z,10.77
2019-04-01T01:29:52.708Z,9.63
2019-04-01T01:32:23.730Z,10.80
2019-04-01T01:34:53.505Z,11.13
2019-04-01T01:37:27.549Z,10.97
2019-04-01T01:39:57.768Z,11.23
2019-04-01T01:42:27.316Z,10.33
2019-04-01T01:44:57.174Z,10.50
2019-04-01T01:47:26.973Z,11.27
2019-04-01T01:49:56.691Z,11.20
2019-04-01T01:52:26.429Z,11.47
2019-04-01T01:54:56.212Z,10.83
2019-04-01T01:57:26.286Z,10.73
2019-04-01T01:59:56.887Z,10.80
2019-04-01T02:02:29.127Z,11.30
2019-04-01T02:04:59.077Z,11.03
2019-04-01T02:07:28.887Z,11.70
2019-04-01T02:09:59.006Z,10.67
2019-04-01T02:12:28.826Z,10.47
2019-04-01T02:14:58.583Z,11.60
2019-04-01T02:17:28.454Z,10.93
2019-04-01T02:19:58.210Z,10.13
2019-04-01T02:22:28.027Z,10.37
2019-04-01T02:24:57.843Z,10.83
2019-04-01T02:27:27.769Z,11.03
2019-04-01T02:29:57.543Z,11.03
2019-04-01T02:32:27.354Z,11.07
2019-04-01T02:34:57.675Z,11.30
2019-04-01T02:37:27.331Z,10.80
2019-04-01T02:39:57.056Z,10.87
2019-04-01T02:42:26.988Z,10.80
2019-04-01T02:44:56.890Z,11.47
2019-04-01T02:47:26.618Z,12.10
2019-04-01T02:49:56.518Z,11.97
2019-04-01T02:52:26.314Z,12.53
2019-04-01T02:54:58.471Z,13.37
2019-04-01T02:57:29.115Z,11.93
2019-04-01T02:59:58.988Z,11.07
2019-04-01T03:02:29.460Z,10.93
2019-04-01T03:04:59.387Z,11.03
2019-04-01T03:07:30.806Z,11.37
2019-04-01T03:10:00.778Z,12.00
2019-04-01T03:12:33.012Z,13.23
2019-04-01T03:15:02.857Z,11.93
2019-04-01T03:17:32.631Z,11.53
2019-04-01T03:20:03.348Z,11.93
2019-04-01T03:22:33.161Z,12.77
2019-04-01T03:25:02.827Z,11.73
2019-04-01T03:27:33.580Z,11.77
2019-04-01T03:30:03.405Z,12.13
2019-04-01T03:32:33.182Z,11.67
2019-04-01T03:35:03.123Z,12.70
2019-04-01T03:37:32.916Z,11.90
2019-04-01T03:40:03.003Z,11.30
2019-04-01T03:42:32.675Z,12.97
2019-04-01T03:45:02.527Z,12.30
2019-04-01T03:47:32.202Z,12.23
2019-04-01T03:50:02.287Z,11.37
2019-04-01T03:52:32.096Z,11.50
2019-04-01T03:55:01.893Z,11.47
2019-04-01T03:57:31.765Z,12.17
2019-04-01T04:00:01.756Z,12.23
2019-04-01T04:02:32.042Z,12.67
2019-04-01T04:05:01.740Z,12.90
2019-04-01T04:07:31.595Z,12.87
2019-04-01T04:10:02.555Z,12.67
2019-04-01T04:12:33.254Z,12.67
2019-04-01T04:15:03.084Z,12.50
2019-04-01T04:17:32.916Z,14.73
2019-04-01T04:20:03.281Z,13.20
2019-04-01T04:22:33.220Z,13.47
2019-04-01T04:25:02.971Z,12.73
2019-04-01T04:27:32.765Z,13.10
2019-04-01T04:30:02.560Z,12.90
2019-04-01T04:32:32.320Z,12.50
2019-04-01T04:35:02.023Z,13.03
2019-04-01T04:37:31.835Z,26.37
2019-04-01T04:40:01.614Z,24.50
2019-04-01T04:42:31.586Z,19.30
2019-04-01T04:45:01.480Z,22.13
2019-04-01T04:47:31.723Z,25.30
2019-04-01T04:50:01.377Z,20.53
2019-04-01T04:52:31.358Z,20.80
2019-04-01T04:55:01.043Z,16.27
2019-04-01T04:57:30.746Z,17.77
2019-04-01T05:00:00.448Z,14.47
2019-04-01T05:02:30.300Z,14.60
2019-04-01T05:05:00.428Z,14.73
2019-04-01T05:07:31.518Z,13.40
2019-04-01T05:10:02.225Z,15.00
2019-04-01T05:12:32.795Z,15.90
2019-04-01T05:15:02.478Z,16.10
2019-04-01T05:17:32.231Z,15.63
2019-04-01T05:20:01.880Z,15.87
2019-04-01T05:22:32.411Z,15.80
2019-04-01T05:25:02.896Z,18.00
2019-04-01T05:27:33.134Z,17.53
2019-04-01T05:30:05.553Z,70.73
2019-04-01T05:32:38.586Z,92.57
2019-04-01T05:35:10.660Z,34.00
2019-04-01T05:37:42.224Z,25.07
2019-04-01T05:40:12.786Z,20.83
2019-04-01T05:42:43.670Z,18.87
2019-04-01T05:45:15.165Z,15.83
2019-04-01T05:47:46.760Z,17.37
2019-04-01T05:50:17.523Z,16.90
2019-04-01T05:52:47.217Z,15.97
2019-04-01T05:55:19.496Z,16.17
2019-04-01T05:57:50.746Z,16.40
2019-04-01T06:00:22.625Z,14.77
2019-04-01T06:02:53.087Z,15.33
2019-04-01T06:05:24.489Z,14.40
2019-04-01T06:07:54.875Z,14.37
2019-04-01T06:10:26.505Z,13.53
2019-04-01T06:12:57.066Z,13.37
2019-04-01T06:15:27.178Z,14.27
2019-04-01T06:17:59.278Z,13.90
2019-04-01T06:20:29.864Z,14.07
2019-04-01T06:23:01.933Z,14.60
2019-04-01T06:25:34.339Z,14.37
2019-04-01T06:28:06.374Z,14.23
2019-04-01T06:30:37.913Z,14.10
2019-04-01T06:33:07.711Z,13.93
2019-04-01T06:35:39.327Z,68.37
2019-04-01T06:38:11.670Z,16.83
2019-04-01T06:40:42.241Z,14.30
2019-04-01T06:43:12.147Z,13.87
2019-04-01T06:45:42.825Z,15.40
2019-04-01T06:48:15.063Z,15.50
2019-04-01T06:50:45.700Z,15.90
2019-04-01T06:53:16.267Z,16.30
2019-04-01T06:55:46.088Z,16.33
2019-04-01T06:58:19.576Z,15.83
2019-04-01T07:00:50.107Z,15.87
2019-04-01T07:03:19.748Z,14.37
2019-04-01T07:05:49.402Z,13.73
2019-04-01T07:08:20.894Z,14.97
2019-04-01T07:10:50.746Z,14.70
2019-04-01T07:13:20.706Z,15.90
2019-04-01T07:15:51.650Z,16.53
2019-04-01T07:18:21.304Z,16.47
2019-04-01T07:20:51.956Z,15.70
2019-04-01T07:23:25.023Z,15.30
2019-04-01T07:25:57.640Z,15.10
2019-04-01T07:28:27.468Z,14.93
2019-04-01T07:30:57.607Z,15.00
2019-04-01T07:33:29.115Z,14.97
2019-04-01T07:36:01.354Z,15.67
2019-04-01T07:38:34.312Z,14.87
2019-04-01T07:41:05.307Z,15.67
2019-04-01T07:43:36.280Z,15.67
2019-04-01T07:46:08.154Z,14.53
2019-04-01T07:48:38.190Z,16.03
2019-04-01T07:51:11.324Z,15.13
2019-04-01T07:53:43.725Z,14.30
2019-04-01T07:56:13.888Z,13.63
2019-04-01T07:58:43.542Z,14.03
2019-04-01T08:01:13.264Z,13.90
2019-04-01T08:03:46.446Z,13.40
2019-04-01T08:06:16.255Z,13.37
2019-04-01T08:08:46.887Z,13.20
2019-04-01T08:11:16.532Z,12.53
2019-04-01T08:13:46.475Z,14.07
2019-04-01T08:16:18.934Z,13.83
2019-04-01T08:18:51.152Z,14.73
2019-04-01T08:21:21.648Z,30.83
2019-04-01T08:23:51.552Z,15.97
2019-04-01T08:26:21.462Z,15.53
2019-04-01T08:28:51.130Z,14.93
2019-04-01T08:31:24.133Z,14.23
2019-04-01T08:33:56.600Z,13.10
2019-04-01T08:36:28.172Z,14.67
2019-04-01T08:38:57.989Z,14.70
2019-04-01T08:41:30.194Z,15.33
2019-04-01T08:44:03.064Z,15.40
2019-04-01T08:46:32.051Z,13.93
2019-04-01T08:49:01.873Z,14.03
2019-04-01T08:51:31.589Z,47.10
2019-04-01T08:54:01.303Z,42.93
2019-04-01T08:56:30.796Z,16.73
2019-04-01T08:59:00.606Z,17.73
2019-04-01T09:01:35.524Z,18.97
2019-04-01T09:04:02.828Z,16.30
2019-04-01T09:06:32.738Z,17.37
2019-04-01T09:09:02.579Z,16.90
2019-04-01T09:11:32.411Z,31.80
2019-04-01T09:14:03.720Z,19.53
2019-04-01T09:16:36.081Z,17.40
2019-04-01T09:19:05.938Z,18.50
2019-04-01T09:21:38.296Z,19.20
2019-04-01T09:24:11.006Z,17.87
2019-04-01T09:26:40.846Z,18.40
2019-04-01T09:29:10.563Z,19.10
2019-04-01T09:31:40.626Z,17.33
2019-04-01T09:34:11.989Z,18.60
2019-04-01T09:36:41.814Z,17.90
2019-04-01T09:39:12.492Z,17.73
2019-04-01T09:41:42.142Z,18.53
2019-04-01T09:44:12.675Z,17.40
2019-04-01T09:46:42.383Z,17.30
2019-04-01T09:49:13.092Z,16.23
2019-04-01T09:51:48.870Z,17.03
2019-04-01T09:54:14.211Z,17.10
2019-04-01T09:56:45.729Z,16.10
2019-04-01T09:59:15.500Z,16.60
2019-04-01T10:01:47.170Z,16.80
2019-04-01T10:04:17.015Z,18.40
2019-04-01T10:06:46.970Z,17.40
2019-04-01T10:09:16.777Z,16.57
2019-04-01T10:11:47.647Z,16.30
2019-04-01T10:14:17.345Z,16.63
2019-04-01T10:16:47.148Z,16.23
2019-04-01T10:19:18.631Z,16.10
2019-04-01T10:21:48.316Z,15.93
2019-04-01T10:24:18.135Z,18.00
2019-04-01T10:26:47.903Z,17.27
2019-04-01T10:29:17.746Z,17.00
2019-04-01T10:31:47.686Z,16.37
2019-04-01T10:34:17.843Z,16.67
2019-04-01T10:36:47.544Z,18.43
2019-04-01T10:39:17.229Z,16.30
2019-04-01T10:41:47.103Z,16.60
2019-04-01T10:44:18.543Z,17.93
2019-04-01T10:46:48.527Z,17.77
2019-04-01T10:49:20.821Z,17.20
2019-04-01T10:51:53.399Z,18.13
2019-04-01T10:54:24.961Z,16.87
2019-04-01T10:56:54.801Z,15.47
2019-04-01T10:59:24.869Z,14.80
2019-04-01T11:01:54.728Z,15.20
2019-04-01T11:04:24.590Z,15.50
2019-04-01T11:06:57.592Z,15.60
2019-04-01T11:09:38.077Z,16.03
2019-04-01T11:11:58.951Z,15.73
2019-04-01T11:14:28.691Z,25.13
2019-04-01T11:16:58.551Z,18.20
2019-04-01T11:19:28.800Z,17.10
2019-04-01T11:21:59.494Z,16.77
2019-04-01T11:24:29.416Z,16.53
2019-04-01T11:26:59.069Z,16.73
2019-04-01T11:29:28.791Z,16.33
2019-04-01T11:31:58.599Z,14.70
2019-04-01T11:34:28.467Z,15.77
2019-04-01T11:36:58.324Z,14.20
2019-04-01T11:39:28.186Z,15.23
2019-04-01T11:42:01.585Z,15.57
2019-04-01T11:44:31.615Z,14.80
2019-04-01T11:47:01.979Z,14.57
2019-04-01T11:49:32.159Z,15.20
2019-04-01T11:52:01.875Z,14.43
2019-04-01T11:54:31.666Z,15.37
2019-04-01T11:57:01.489Z,16.37
2019-04-01T11:59:31.252Z,16.03
2019-04-01T12:02:03.017Z,15.23
2019-04-01T12:04:33.142Z,16.03
2019-04-01T12:07:02.932Z,16.10
2019-04-01T12:09:32.799Z,15.57
2019-04-01T12:12:04.186Z,14.60
2019-04-01T12:14:34.271Z,14.80
2019-04-01T12:17:04.085Z,14.80
2019-04-01T12:19:36.276Z,13.77
2019-04-01T12:22:05.918Z,14.67
2019-04-01T12:24:35.716Z,14.73
2019-04-01T12:27:05.511Z,14.27
2019-04-01T12:29:35.304Z,13.33
2019-04-01T12:32:05.109Z,13.13
2019-04-01T12:34:38.173Z,13.47
2019-04-01T12:37:07.949Z,13.00
2019-04-01T12:39:37.864Z,14.07
2019-04-01T12:42:07.735Z,13.10
2019-04-01T12:44:37.750Z,12.63
2019-04-01T12:47:07.596Z,12.87
2019-04-01T12:49:37.286Z,13.17
2019-04-01T12:52:06.963Z,12.63
2019-04-01T12:54:36.968Z,13.00
2019-04-01T12:57:06.886Z,12.57
2019-04-01T12:59:36.637Z,12.20
2019-04-01T13:02:06.447Z,12.63
2019-04-01T13:04:36.361Z,11.13
2019-04-01T13:07:06.198Z,11.83
2019-04-01T13:09:36.088Z,12.13
2019-04-01T13:12:06.074Z,11.97
2019-04-01T13:14:35.865Z,12.07
2019-04-01T13:17:05.822Z,12.83
2019-04-01T13:19:35.716Z,11.97
2019-04-01T13:22:05.495Z,12.70
2019-04-01T13:24:35.568Z,12.30
2019-04-01T13:27:08.937Z,13.17
2019-04-01T13:29:37.304Z,13.27
2019-04-01T13:32:07.193Z,13.70
2019-04-01T13:34:36.857Z,12.67
2019-04-01T13:37:06.768Z,12.67
2019-04-01T13:39:36.603Z,14.03
2019-04-01T13:42:08.336Z,14.23
2019-04-01T13:44:39.703Z,14.03
2019-04-01T13:47:09.707Z,13.50
2019-04-01T13:49:39.869Z,13.43
2019-04-01T13:52:10.658Z,14.13
2019-04-01T13:54:41.407Z,12.43
2019-04-01T13:57:13.069Z,12.27
2019-04-01T13:59:49.523Z,13.23
2019-04-01T14:02:14.452Z,13.93
2019-04-01T14:04:45.056Z,13.13
2019-04-01T14:07:14.945Z,12.80
2019-04-01T14:09:44.896Z,13.70
2019-04-01T14:12:14.858Z,13.77
2019-04-01T14:14:44.805Z,13.67
2019-04-01T14:17:14.632Z,13.37
2019-04-01T14:19:44.362Z,12.80
2019-04-01T14:22:14.134Z,14.37
2019-04-01T14:24:45.251Z,14.70
2019-04-01T14:27:15.507Z,13.00
2019-04-01T14:29:46.055Z,14.13
2019-04-01T14:32:18.026Z,13.20
2019-04-01T14:34:50.288Z,12.67
2019-04-01T14:37:25.912Z,13.23
2019-04-01T14:39:51.539Z,13.27
2019-04-01T14:42:21.329Z,13.30
2019-04-01T14:44:58.802Z,13.77
2019-04-01T14:47:29.407Z,13.80
2019-04-01T14:49:59.642Z,13.37
2019-04-01T14:52:32.741Z,13.67
2019-04-01T14:55:02.405Z,13.40
2019-04-01T14:57:32.466Z,13.10
2019-04-01T15:00:04.522Z,14.07
2019-04-01T15:02:35.009Z,13.73
2019-04-01T15:05:06.027Z,13.30
2019-04-01T15:07:36.183Z,13.60
2019-04-01T15:10:07.440Z,14.47
2019-04-01T15:12:37.648Z,14.67
2019-04-01T15:15:09.182Z,13.33
2019-04-01T15:17:39.881Z,13.70
2019-04-01T15:20:09.941Z,14.43
2019-04-01T15:22:40.714Z,14.27
2019-04-01T15:25:11.181Z,13.90
2019-04-01T15:27:42.178Z,13.67
2019-04-01T15:30:14.063Z,13.47
2019-04-01T15:32:44.243Z,14.07
2019-04-01T15:35:14.428Z,13.87
2019-04-01T15:37:44.268Z,13.43
2019-04-01T15:40:14.886Z,14.07
2019-04-01T15:42:44.709Z,13.67
2019-04-01T15:45:14.918Z,12.53
2019-04-01T15:47:45.543Z,13.23
2019-04-01T15:50:27.705Z,13.30
2019-04-01T15:52:47.893Z,13.37
2019-04-01T15:55:17.798Z,14.47
2019-04-01T15:57:47.926Z,13.63
2019-04-01T16:00:19.679Z,13.53
2019-04-01T16:02:50.536Z,13.60
2019-04-01T16:05:22.123Z,13.43
2019-04-01T16:07:52.092Z,14.33
2019-04-01T16:10:21.987Z,14.23
2019-04-01T16:12:51.774Z,14.30
2019-04-01T16:15:24.358Z,13.67
2019-04-01T16:17:54.522Z,13.67
2019-04-01T16:20:26.028Z,13.43
2019-04-01T16:22:56.218Z,14.07
2019-04-01T16:25:26.026Z,13.93
2019-04-01T16:27:56.230Z,14.07
2019-04-01T16:30:27.197Z,14.70
2019-04-01T16:32:58.547Z,13.83
2019-04-01T16:35:29.681Z,15.60
2019-04-01T16:37:59.958Z,14.87
2019-04-01T16:40:31.166Z,14.57
2019-04-01T16:43:00.966Z,14.27
2019-04-01T16:45:30.767Z,14.70
2019-04-01T16:48:00.789Z,14.43
2019-04-01T16:50:30.623Z,14.30
2019-04-01T16:53:00.464Z,14.30
2019-04-01T16:55:30.020Z,15.53
2019-04-01T16:58:00.632Z,17.87
2019-04-01T17:00:30.432Z,15.90
2019-04-01T17:03:01.485Z,14.27
2019-04-01T17:05:33.430Z,14.30
2019-04-01T17:08:03.454Z,14.53
2019-04-01T17:10:33.566Z,14.70
2019-04-01T17:13:03.525Z,14.83
2019-04-01T17:15:33.338Z,14.30
2019-04-01T17:18:03.169Z,14.13
2019-04-01T17:20:33.229Z,13.77
2019-04-01T17:23:03.037Z,15.53
2019-04-01T17:25:32.863Z,14.37
2019-04-01T17:28:02.978Z,14.80
2019-04-01T17:30:32.854Z,14.70
2019-04-01T17:33:02.707Z,15.13
2019-04-01T17:35:33.518Z,14.70
2019-04-01T17:38:06.301Z,14.77
2019-04-01T17:40:37.027Z,14.50
2019-04-01T17:43:09.326Z,14.83
2019-04-01T17:45:40.327Z,14.73
2019-04-01T17:48:13.758Z,39.60
2019-04-01T17:50:44.704Z,31.30
2019-04-01T17:53:15.900Z,15.60
2019-04-01T17:55:48.618Z,15.20
2019-04-01T17:58:18.815Z,14.37
2019-04-01T18:01:00.223Z,13.40
2019-04-01T18:03:30.276Z,14.97
2019-04-01T18:06:00.184Z,14.93
2019-04-01T18:08:30.377Z,18.80
2019-04-01T18:11:01.342Z,14.03
2019-04-01T18:13:32.506Z,15.70
2019-04-01T18:16:03.348Z,14.70
2019-04-01T18:18:34.197Z,14.77
2019-04-01T18:21:05.203Z,15.40
2019-04-01T18:23:36.189Z,14.97
2019-04-01T18:26:06.323Z,14.77
2019-04-01T18:28:36.182Z,14.40
2019-04-01T18:31:06.163Z,20.37
2019-04-01T18:33:36.555Z,15.87
2019-04-01T18:36:07.754Z,15.97
2019-04-01T18:38:40.815Z,15.50
2019-04-01T18:41:10.774Z,25.00
2019-04-01T18:43:40.784Z,17.60
2019-04-01T18:46:10.604Z,16.40
2019-04-01T18:48:40.585Z,15.27
2019-04-01T18:51:10.980Z,15.50
2019-04-01T18:53:41.975Z,14.93
2019-04-01T18:56:11.702Z,15.33
2019-04-01T18:58:41.510Z,16.07
2019-04-01T19:01:11.404Z,14.43
2019-04-01T19:03:43.099Z,14.57
2019-04-01T19:06:15.520Z,15.17
2019-04-01T19:08:45.303Z,13.97
2019-04-01T19:11:16.287Z,32.90
2019-04-01T19:13:47.780Z,32.37
2019-04-01T19:16:17.601Z,14.90
2019-04-01T19:18:47.450Z,14.10
2019-04-01T19:21:17.220Z,14.67
2019-04-01T19:23:48.720Z,15.47
2019-04-01T19:26:18.778Z,14.63
2019-04-01T19:28:50.840Z,21.63
2019-04-01T19:31:23.240Z,17.50
2019-04-01T19:33:53.222Z,15.53
2019-04-01T19:36:23.232Z,16.30
2019-04-01T19:38:54.315Z,15.23
2019-04-01T19:41:24.379Z,14.97
2019-04-01T19:43:54.221Z,15.20
2019-04-01T19:46:24.562Z,15.47
2019-04-01T19:48:54.461Z,15.63
2019-04-01T19:51:24.245Z,23.97
2019-04-01T19:53:54.029Z,16.47
2019-04-01T19:56:23.941Z,16.03
2019-04-01T19:58:54.156Z,24.07
2019-04-01T20:01:25.205Z,18.50
2019-04-01T20:03:55.062Z,15.83
2019-04-01T20:06:24.916Z,18.43
2019-04-01T20:08:55.756Z,24.93
2019-04-01T20:11:28.736Z,19.57
2019-04-01T20:14:00.733Z,22.87
2019-04-01T20:16:32.515Z,22.57
2019-04-01T20:19:02.305Z,16.20
2019-04-01T20:21:32.585Z,15.10
2019-04-01T20:24:02.732Z,16.60
2019-04-01T20:26:34.076Z,15.53
2019-04-01T20:29:03.910Z,15.40
2019-04-01T20:31:33.655Z,15.37
2019-04-01T20:34:04.413Z,16.20
2019-04-01T20:36:34.937Z,16.37
2019-04-01T20:39:07.556Z,19.87
2019-04-01T20:41:37.669Z,19.23
2019-04-01T20:44:07.437Z,17.13
2019-04-01T20:46:39.098Z,16.90
2019-04-01T20:49:11.469Z,16.60
2019-04-01T20:51:41.330Z,16.10
2019-04-01T20:54:11.158Z,16.80
2019-04-01T20:56:41.036Z,17.63
2019-04-01T20:59:10.875Z,16.87
2019-04-01T21:01:40.655Z,15.73
2019-04-01T21:04:10.404Z,16.10
2019-04-01T21:06:40.133Z,131.50
2019-04-01T21:09:10.512Z,127.03
2019-04-01T21:11:40.351Z,82.83
2019-04-01T21:14:10.334Z,120.63
2019-04-01T21:16:40.155Z,92.30
2019-04-01T21:19:10.377Z,61.60
2019-04-01T21:21:40.957Z,38.20
2019-04-01T21:24:10.759Z,20.67
2019-04-01T21:26:40.433Z,19.53
2019-04-01T21:29:10.821Z,17.43
2019-04-01T21:31:40.617Z,19.20
2019-04-01T21:34:11.195Z,17.30
2019-04-01T21:36:40.994Z,16.33
2019-04-01T21:39:10.798Z,18.23
2019-04-01T21:41:40.277Z,17.07
2019-04-01T21:44:10.346Z,18.40
2019-04-01T21:46:40.088Z,17.67
2019-04-01T21:49:09.836Z,17.47
2019-04-01T21:51:39.908Z,19.20
2019-04-01T21:54:09.674Z,16.83
2019-04-01T21:56:39.345Z,17.33
2019-04-01T21:59:09.134Z,27.47
2019-04-01T22:01:38.954Z,47.77
2019-04-01T22:04:11.054Z,65.77
2019-04-01T22:06:41.471Z,52.50
2019-04-01T22:09:11.739Z,29.33
2019-04-01T22:11:41.382Z,18.03
2019-04-01T22:14:11.152Z,15.17
2019-04-01T22:16:41.025Z,17.20
2019-04-01T22:19:12.066Z,17.40
2019-04-01T22:21:42.238Z,17.50
2019-04-01T22:24:12.135Z,16.80
2019-04-01T22:26:42.055Z,16.27
2019-04-01T22:29:13.053Z,16.77
2019-04-01T22:31:44.171Z,16.07
2019-04-01T22:34:14.266Z,15.87
2019-04-01T22:36:47.996Z,16.67
2019-04-01T22:39:26.905Z,17.00
2019-04-01T22:41:49.754Z,15.97
2019-04-01T22:44:19.436Z,16.17
2019-04-01T22:46:49.491Z,16.97
2019-04-01T22:49:19.276Z,15.60
2019-04-01T22:51:49.054Z,16.03
2019-04-01T22:54:18.855Z,16.63
2019-04-01T22:56:48.615Z,15.43
2019-04-01T22:59:19.273Z,16.77
2019-04-01T23:01:49.996Z,16.23
2019-04-01T23:04:19.775Z,16.03
2019-04-01T23:06:49.501Z,16.00
2019-04-01T23:09:19.415Z,15.33
2019-04-01T23:11:49.162Z,14.67
2019-04-01T23:14:18.788Z,15.63
2019-04-01T23:16:48.597Z,15.70
2019-04-01T23:19:18.360Z,16.00
2019-04-01T23:21:50.520Z,16.30
2019-04-01T23:24:20.449Z,15.63
2019-04-01T23:26:50.307Z,15.73
2019-04-01T23:29:20.063Z,16.37
2019-04-01T23:31:49.853Z,15.87
2019-04-01T23:34:22.089Z,15.43
2019-04-01T23:36:52.008Z,14.73
2019-04-01T23:39:21.698Z,15.37
2019-04-01T23:41:52.937Z,15.20
2019-04-01T23:44:23.453Z,15.60
2019-04-01T23:46:53.656Z,15.17
2019-04-01T23:49:24.353Z,16.07
2019-04-01T23:51:54.871Z,16.07
2019-04-01T23:54:25.138Z,15.80
2019-04-01T23:56:56.223Z,16.40
2019-04-01T23:59:26.679Z,16.00
